sensor_id;sensor_type;location;lat;lon;timestamp;P1;durP1;ratioP1;P2;durP2;ratioP2
11522;SDS011;70090;43.208;27.904;2023-06-04T00:00:14;9.70;;;7.23;;
11522;SDS011;70090;43.208;27.904;2023-06-04T00:02:41;9.63;;;7.53;;
11522;SDS011;70090;43.208;27.904;2023-06-04T00:05:10;7.23;;;6.53;;
11522;SDS011;70090;43.208;27.904;2023-06-04T00:07:36;9.30;;;7.13;;
11522;SDS011;70090;43.208;27.904;2023-06-04T00:10:04;8.90;;;6.47;;
11522;SDS011;70090;43.208;27.904;2023-06-04T00:12:31;10.50;;;7.53;;
11522;SDS011;70090;43.208;27.904;2023-06-04T00:14:58;9.77;;;7.17;;
11522;SDS011;70090;43.208;27.904;2023-06-04T00:17:25;8.93;;;7.03;;
11522;SDS011;70090;43.208;27.904;2023-06-04T00:19:52;8.80;;;7.00;;
11522;SDS011;70090;43.208;27.904;2023-06-04T00:22:20;8.23;;;7.40;;
11522;SDS011;70090;43.208;27.904;2023-06-04T00:24:47;10.50;;;7.43;;
11522;SDS011;70090;43.208;27.904;2023-06-04T00:27:13;8.80;;;6.73;;
11522;SDS011;70090;43.208;27.904;2023-06-04T00:29:40;9.13;;;7.13;;
11522;SDS011;70090;43.208;27.904;2023-06-04T00:32:07;9.33;;;7.30;;
11522;SDS011;70090;43.208;27.904;2023-06-04T00:34:34;8.63;;;7.27;;
11522;SDS011;70090;43.208;27.904;2023-06-04T00:37:01;9.47;;;7.50;;
11522;SDS011;70090;43.208;27.904;2023-06-04T00:39:29;8.63;;;7.30;;
11522;SDS011;70090;43.208;27.904;2023-06-04T00:41:56;11.20;;;7.93;;
11522;SDS011;70090;43.208;27.904;2023-06-04T00:44:23;10.53;;;7.07;;
11522;SDS011;70090;43.208;27.904;2023-06-04T00:46:51;7.70;;;6.90;;
11522;SDS011;70090;43.208;27.904;2023-06-04T00:49:18;10.07;;;7.23;;
11522;SDS011;70090;43.208;27.904;2023-06-04T00:51:45;8.77;;;7.30;;
11522;SDS011;70090;43.208;27.904;2023-06-04T00:54:12;10.30;;;7.17;;
11522;SDS011;70090;43.208;27.904;2023-06-04T00:56:43;11.50;;;7.43;;
11522;SDS011;70090;43.208;27.904;2023-06-04T00:59:10;10.33;;;7.40;;
11522;SDS011;70090;43.208;27.904;2023-06-04T01:01:39;9.07;;;6.57;;
11522;SDS011;70090;43.208;27.904;2023-06-04T01:04:12;9.33;;;7.23;;
11522;SDS011;70090;43.208;27.904;2023-06-04T01:06:43;10.40;;;6.97;;
11522;SDS011;70090;43.208;27.904;2023-06-04T01:09:11;8.50;;;6.87;;
11522;SDS011;70090;43.208;27.904;2023-06-04T01:11:40;8.77;;;6.20;;
11522;SDS011;70090;43.208;27.904;2023-06-04T01:14:08;10.50;;;6.50;;
11522;SDS011;70090;43.208;27.904;2023-06-04T01:16:39;8.93;;;6.40;;
11522;SDS011;70090;43.208;27.904;2023-06-04T01:19:11;9.43;;;5.90;;
11522;SDS011;70090;43.208;27.904;2023-06-04T01:21:50;8.23;;;6.20;;
11522;SDS011;70090;43.208;27.904;2023-06-04T01:24:20;7.00;;;5.90;;
11522;SDS011;70090;43.208;27.904;2023-06-04T01:26:48;9.33;;;6.13;;
11522;SDS011;70090;43.208;27.904;2023-06-04T01:29:18;8.10;;;5.63;;
11522;SDS011;70090;43.208;27.904;2023-06-04T01:31:45;8.57;;;6.00;;
11522;SDS011;70090;43.208;27.904;2023-06-04T01:34:13;8.43;;;6.00;;
11522;SDS011;70090;43.208;27.904;2023-06-04T01:36:39;11.47;;;6.47;;
11522;SDS011;70090;43.208;27.904;2023-06-04T01:39:06;8.50;;;6.00;;
11522;SDS011;70090;43.208;27.904;2023-06-04T01:41:33;8.87;;;5.50;;
11522;SDS011;70090;43.208;27.904;2023-06-04T01:44:00;9.23;;;5.77;;
11522;SDS011;70090;43.208;27.904;2023-06-04T01:46:28;8.17;;;5.60;;
11522;SDS011;70090;43.208;27.904;2023-06-04T01:48:56;9.50;;;5.87;;
11522;SDS011;70090;43.208;27.904;2023-06-04T01:51:22;8.73;;;5.67;;
11522;SDS011;70090;43.208;27.904;2023-06-04T01:53:49;6.43;;;5.13;;
11522;SDS011;70090;43.208;27.904;2023-06-04T01:56:16;11.30;;;6.50;;
11522;SDS011;70090;43.208;27.904;2023-06-04T01:58:43;9.10;;;5.43;;
11522;SDS011;70090;43.208;27.904;2023-06-04T02:01:10;11.37;;;5.53;;
11522;SDS011;70090;43.208;27.904;2023-06-04T02:03:38;7.03;;;5.70;;
11522;SDS011;70090;43.208;27.904;2023-06-04T02:06:05;9.33;;;5.37;;
11522;SDS011;70090;43.208;27.904;2023-06-04T02:08:32;7.23;;;5.20;;
11522;SDS011;70090;43.208;27.904;2023-06-04T02:11:00;7.13;;;4.77;;
11522;SDS011;70090;43.208;27.904;2023-06-04T02:13:27;6.63;;;5.00;;
11522;SDS011;70090;43.208;27.904;2023-06-04T02:15:54;7.03;;;4.83;;
11522;SDS011;70090;43.208;27.904;2023-06-04T02:18:21;6.40;;;4.77;;
11522;SDS011;70090;43.208;27.904;2023-06-04T02:20:49;7.30;;;5.10;;
11522;SDS011;70090;43.208;27.904;2023-06-04T02:23:18;7.97;;;4.90;;
11522;SDS011;70090;43.208;27.904;2023-06-04T02:25:45;10.23;;;4.80;;
11522;SDS011;70090;43.208;27.904;2023-06-04T02:28:14;7.83;;;4.83;;
11522;SDS011;70090;43.208;27.904;2023-06-04T02:30:41;7.23;;;4.67;;
11522;SDS011;70090;43.208;27.904;2023-06-04T02:33:10;9.47;;;4.90;;
11522;SDS011;70090;43.208;27.904;2023-06-04T02:35:36;7.37;;;4.73;;
11522;SDS011;70090;43.208;27.904;2023-06-04T02:38:05;8.77;;;4.37;;
11522;SDS011;70090;43.208;27.904;2023-06-04T02:40:32;8.90;;;4.40;;
11522;SDS011;70090;43.208;27.904;2023-06-04T02:42:59;8.23;;;4.40;;
11522;SDS011;70090;43.208;27.904;2023-06-04T02:45:26;5.03;;;3.97;;
11522;SDS011;70090;43.208;27.904;2023-06-04T02:47:53;9.07;;;4.60;;
11522;SDS011;70090;43.208;27.904;2023-06-04T02:50:20;8.60;;;4.60;;
11522;SDS011;70090;43.208;27.904;2023-06-04T02:52:47;7.67;;;4.60;;
11522;SDS011;70090;43.208;27.904;2023-06-04T02:55:16;9.97;;;4.33;;
11522;SDS011;70090;43.208;27.904;2023-06-04T02:57:45;6.00;;;4.00;;
11522;SDS011;70090;43.208;27.904;2023-06-04T03:00:12;8.43;;;4.17;;
11522;SDS011;70090;43.208;27.904;2023-06-04T03:02:42;5.43;;;3.97;;
11522;SDS011;70090;43.208;27.904;2023-06-04T03:05:10;5.40;;;4.13;;
11522;SDS011;70090;43.208;27.904;2023-06-04T03:07:38;6.77;;;4.47;;
11522;SDS011;70090;43.208;27.904;2023-06-04T03:10:06;7.30;;;4.43;;
11522;SDS011;70090;43.208;27.904;2023-06-04T03:12:36;5.83;;;4.50;;
11522;SDS011;70090;43.208;27.904;2023-06-04T03:15:03;6.50;;;4.30;;
11522;SDS011;70090;43.208;27.904;2023-06-04T03:17:31;7.20;;;4.20;;
11522;SDS011;70090;43.208;27.904;2023-06-04T03:19:58;6.70;;;4.40;;
11522;SDS011;70090;43.208;27.904;2023-06-04T03:22:25;6.63;;;4.00;;
11522;SDS011;70090;43.208;27.904;2023-06-04T03:24:53;6.23;;;4.27;;
11522;SDS011;70090;43.208;27.904;2023-06-04T03:27:20;7.90;;;4.73;;
11522;SDS011;70090;43.208;27.904;2023-06-04T03:29:48;9.67;;;4.30;;
11522;SDS011;70090;43.208;27.904;2023-06-04T03:32:15;5.80;;;4.40;;
11522;SDS011;70090;43.208;27.904;2023-06-04T03:34:42;6.47;;;4.80;;
11522;SDS011;70090;43.208;27.904;2023-06-04T03:37:09;5.80;;;4.70;;
11522;SDS011;70090;43.208;27.904;2023-06-04T03:39:36;6.43;;;5.07;;
11522;SDS011;70090;43.208;27.904;2023-06-04T03:42:03;8.37;;;5.10;;
11522;SDS011;70090;43.208;27.904;2023-06-04T03:44:30;7.73;;;5.13;;
11522;SDS011;70090;43.208;27.904;2023-06-04T03:46:58;8.30;;;5.10;;
11522;SDS011;70090;43.208;27.904;2023-06-04T03:49:25;7.00;;;5.53;;
11522;SDS011;70090;43.208;27.904;2023-06-04T03:51:52;6.80;;;5.53;;
11522;SDS011;70090;43.208;27.904;2023-06-04T03:54:20;6.53;;;5.20;;
11522;SDS011;70090;43.208;27.904;2023-06-04T03:56:47;6.60;;;5.40;;
11522;SDS011;70090;43.208;27.904;2023-06-04T03:59:14;8.20;;;5.70;;
11522;SDS011;70090;43.208;27.904;2023-06-04T04:01:41;10.53;;;5.67;;
11522;SDS011;70090;43.208;27.904;2023-06-04T04:04:10;6.80;;;5.60;;
11522;SDS011;70090;43.208;27.904;2023-06-04T04:06:37;9.50;;;5.90;;
11522;SDS011;70090;43.208;27.904;2023-06-04T04:09:03;9.27;;;5.47;;
11522;SDS011;70090;43.208;27.904;2023-06-04T04:11:31;10.10;;;6.00;;
11522;SDS011;70090;43.208;27.904;2023-06-04T04:13:58;9.70;;;5.60;;
11522;SDS011;70090;43.208;27.904;2023-06-04T04:16:25;7.57;;;5.10;;
11522;SDS011;70090;43.208;27.904;2023-06-04T04:18:52;7.67;;;5.73;;
11522;SDS011;70090;43.208;27.904;2023-06-04T04:21:20;7.70;;;5.60;;
11522;SDS011;70090;43.208;27.904;2023-06-04T04:23:49;9.57;;;5.63;;
11522;SDS011;70090;43.208;27.904;2023-06-04T04:26:16;5.60;;;5.10;;
11522;SDS011;70090;43.208;27.904;2023-06-04T04:28:43;8.03;;;4.63;;
11522;SDS011;70090;43.208;27.904;2023-06-04T04:31:10;8.33;;;5.20;;
11522;SDS011;70090;43.208;27.904;2023-06-04T04:33:37;8.57;;;5.10;;
11522;SDS011;70090;43.208;27.904;2023-06-04T04:36:05;12.27;;;5.20;;
11522;SDS011;70090;43.208;27.904;2023-06-04T04:38:36;6.67;;;4.67;;
11522;SDS011;70090;43.208;27.904;2023-06-04T04:41:03;6.73;;;4.50;;
11522;SDS011;70090;43.208;27.904;2023-06-04T04:43:33;7.97;;;4.57;;
11522;SDS011;70090;43.208;27.904;2023-06-04T04:46:02;7.80;;;4.20;;
11522;SDS011;70090;43.208;27.904;2023-06-04T04:48:29;10.63;;;4.20;;
11522;SDS011;70090;43.208;27.904;2023-06-04T04:50:56;5.77;;;4.10;;
11522;SDS011;70090;43.208;27.904;2023-06-04T04:53:24;7.97;;;3.90;;
11522;SDS011;70090;43.208;27.904;2023-06-04T04:55:53;11.07;;;4.10;;
11522;SDS011;70090;43.208;27.904;2023-06-04T04:58:20;6.93;;;3.80;;
11522;SDS011;70090;43.208;27.904;2023-06-04T05:00:47;10.57;;;4.30;;
11522;SDS011;70090;43.208;27.904;2023-06-04T05:03:13;5.07;;;3.73;;
11522;SDS011;70090;43.208;27.904;2023-06-04T05:05:40;4.60;;;3.30;;
11522;SDS011;70090;43.208;27.904;2023-06-04T05:08:08;5.90;;;3.40;;
11522;SDS011;70090;43.208;27.904;2023-06-04T05:10:35;7.43;;;3.50;;
11522;SDS011;70090;43.208;27.904;2023-06-04T05:13:03;5.20;;;3.33;;
11522;SDS011;70090;43.208;27.904;2023-06-04T05:15:31;5.83;;;3.20;;
11522;SDS011;70090;43.208;27.904;2023-06-04T05:17:58;5.20;;;3.17;;
11522;SDS011;70090;43.208;27.904;2023-06-04T05:20:26;8.27;;;3.50;;
11522;SDS011;70090;43.208;27.904;2023-06-04T05:22:53;6.73;;;3.57;;
11522;SDS011;70090;43.208;27.904;2023-06-04T05:25:21;7.47;;;3.30;;
11522;SDS011;70090;43.208;27.904;2023-06-04T05:27:48;4.30;;;3.07;;
11522;SDS011;70090;43.208;27.904;2023-06-04T05:30:16;6.40;;;3.47;;
11522;SDS011;70090;43.208;27.904;2023-06-04T05:32:43;5.57;;;3.33;;
11522;SDS011;70090;43.208;27.904;2023-06-04T05:35:10;5.47;;;3.17;;
11522;SDS011;70090;43.208;27.904;2023-06-04T05:37:37;6.40;;;3.50;;
11522;SDS011;70090;43.208;27.904;2023-06-04T05:40:07;7.03;;;2.73;;
11522;SDS011;70090;43.208;27.904;2023-06-04T05:42:35;6.10;;;3.00;;
11522;SDS011;70090;43.208;27.904;2023-06-04T05:45:03;6.87;;;3.13;;
11522;SDS011;70090;43.208;27.904;2023-06-04T05:47:31;5.13;;;3.00;;
11522;SDS011;70090;43.208;27.904;2023-06-04T05:49:59;6.40;;;2.93;;
11522;SDS011;70090;43.208;27.904;2023-06-04T05:52:25;6.57;;;3.10;;
11522;SDS011;70090;43.208;27.904;2023-06-04T05:54:52;6.90;;;2.80;;
11522;SDS011;70090;43.208;27.904;2023-06-04T05:57:19;6.80;;;2.90;;
11522;SDS011;70090;43.208;27.904;2023-06-04T05:59:47;6.73;;;3.07;;
11522;SDS011;70090;43.208;27.904;2023-06-04T06:02:14;6.03;;;2.77;;
11522;SDS011;70090;43.208;27.904;2023-06-04T06:04:42;6.73;;;2.67;;
11522;SDS011;70090;43.208;27.904;2023-06-04T06:07:09;7.30;;;3.00;;
11522;SDS011;70090;43.208;27.904;2023-06-04T06:09:36;6.77;;;2.70;;
11522;SDS011;70090;43.208;27.904;2023-06-04T06:12:03;4.87;;;2.63;;
11522;SDS011;70090;43.208;27.904;2023-06-04T06:14:31;5.83;;;2.50;;
11522;SDS011;70090;43.208;27.904;2023-06-04T06:16:58;5.87;;;2.67;;
11522;SDS011;70090;43.208;27.904;2023-06-04T06:19:25;7.53;;;2.93;;
11522;SDS011;70090;43.208;27.904;2023-06-04T06:21:53;6.80;;;2.70;;
11522;SDS011;70090;43.208;27.904;2023-06-04T06:24:20;4.87;;;2.50;;
11522;SDS011;70090;43.208;27.904;2023-06-04T06:26:47;5.87;;;2.80;;
11522;SDS011;70090;43.208;27.904;2023-06-04T06:29:14;7.43;;;2.93;;
11522;SDS011;70090;43.208;27.904;2023-06-04T06:31:41;7.43;;;2.67;;
11522;SDS011;70090;43.208;27.904;2023-06-04T06:34:08;5.07;;;2.30;;
11522;SDS011;70090;43.208;27.904;2023-06-04T06:36:35;4.47;;;2.63;;
11522;SDS011;70090;43.208;27.904;2023-06-04T06:39:03;6.30;;;2.63;;
11522;SDS011;70090;43.208;27.904;2023-06-04T06:41:30;6.77;;;2.67;;
11522;SDS011;70090;43.208;27.904;2023-06-04T06:43:57;4.13;;;2.57;;
11522;SDS011;70090;43.208;27.904;2023-06-04T06:46:23;3.97;;;2.50;;
11522;SDS011;70090;43.208;27.904;2023-06-04T06:48:50;12.63;;;2.87;;
11522;SDS011;70090;43.208;27.904;2023-06-04T06:51:17;6.03;;;2.80;;
11522;SDS011;70090;43.208;27.904;2023-06-04T06:53:44;7.07;;;2.67;;
11522;SDS011;70090;43.208;27.904;2023-06-04T06:56:13;6.67;;;2.73;;
11522;SDS011;70090;43.208;27.904;2023-06-04T06:58:40;7.60;;;3.00;;
11522;SDS011;70090;43.208;27.904;2023-06-04T07:01:07;6.77;;;2.93;;
11522;SDS011;70090;43.208;27.904;2023-06-04T07:03:34;9.20;;;2.73;;
11522;SDS011;70090;43.208;27.904;2023-06-04T07:06:01;9.33;;;2.80;;
11522;SDS011;70090;43.208;27.904;2023-06-04T07:08:27;4.73;;;2.73;;
11522;SDS011;70090;43.208;27.904;2023-06-04T07:10:54;9.30;;;3.10;;
11522;SDS011;70090;43.208;27.904;2023-06-04T07:13:23;5.90;;;2.80;;
11522;SDS011;70090;43.208;27.904;2023-06-04T07:15:49;7.17;;;3.10;;
11522;SDS011;70090;43.208;27.904;2023-06-04T07:18:16;10.10;;;3.20;;
11522;SDS011;70090;43.208;27.904;2023-06-04T07:20:43;6.13;;;3.50;;
11522;SDS011;70090;43.208;27.904;2023-06-04T07:23:10;5.87;;;3.20;;
11522;SDS011;70090;43.208;27.904;2023-06-04T07:25:37;6.23;;;3.90;;
11522;SDS011;70090;43.208;27.904;2023-06-04T07:28:04;5.50;;;3.13;;
11522;SDS011;70090;43.208;27.904;2023-06-04T07:30:32;10.27;;;4.03;;
11522;SDS011;70090;43.208;27.904;2023-06-04T07:32:59;7.27;;;3.70;;
11522;SDS011;70090;43.208;27.904;2023-06-04T07:35:25;6.47;;;3.37;;
11522;SDS011;70090;43.208;27.904;2023-06-04T07:37:52;6.00;;;3.80;;
11522;SDS011;70090;43.208;27.904;2023-06-04T07:40:19;8.03;;;3.50;;
11522;SDS011;70090;43.208;27.904;2023-06-04T07:42:46;6.00;;;3.93;;
11522;SDS011;70090;43.208;27.904;2023-06-04T07:45:13;8.87;;;3.43;;
11522;SDS011;70090;43.208;27.904;2023-06-04T07:47:42;6.83;;;3.30;;
11522;SDS011;70090;43.208;27.904;2023-06-04T07:50:10;5.10;;;3.30;;
11522;SDS011;70090;43.208;27.904;2023-06-04T07:52:37;6.13;;;3.30;;
11522;SDS011;70090;43.208;27.904;2023-06-04T07:55:05;5.17;;;3.07;;
11522;SDS011;70090;43.208;27.904;2023-06-04T07:57:33;7.23;;;3.27;;
11522;SDS011;70090;43.208;27.904;2023-06-04T08:00:01;7.10;;;3.40;;
11522;SDS011;70090;43.208;27.904;2023-06-04T08:02:30;9.37;;;3.40;;
11522;SDS011;70090;43.208;27.904;2023-06-04T08:04:59;5.57;;;3.17;;
11522;SDS011;70090;43.208;27.904;2023-06-04T08:07:27;5.80;;;3.53;;
11522;SDS011;70090;43.208;27.904;2023-06-04T08:09:54;8.93;;;3.70;;
11522;SDS011;70090;43.208;27.904;2023-06-04T08:12:21;5.13;;;3.20;;
11522;SDS011;70090;43.208;27.904;2023-06-04T08:14:48;5.67;;;3.30;;
11522;SDS011;70090;43.208;27.904;2023-06-04T08:17:16;8.37;;;3.60;;
11522;SDS011;70090;43.208;27.904;2023-06-04T08:19:43;6.10;;;3.60;;
11522;SDS011;70090;43.208;27.904;2023-06-04T08:22:11;4.87;;;3.10;;
11522;SDS011;70090;43.208;27.904;2023-06-04T08:24:38;6.40;;;3.70;;
11522;SDS011;70090;43.208;27.904;2023-06-04T08:27:05;5.97;;;3.23;;
11522;SDS011;70090;43.208;27.904;2023-06-04T08:29:33;9.43;;;4.67;;
11522;SDS011;70090;43.208;27.904;2023-06-04T08:32:00;6.60;;;3.57;;
11522;SDS011;70090;43.208;27.904;2023-06-04T08:34:27;6.83;;;4.27;;
11522;SDS011;70090;43.208;27.904;2023-06-04T08:36:54;10.63;;;3.97;;
11522;SDS011;70090;43.208;27.904;2023-06-04T08:39:25;9.43;;;3.83;;
11522;SDS011;70090;43.208;27.904;2023-06-04T08:41:52;6.87;;;3.27;;
11522;SDS011;70090;43.208;27.904;2023-06-04T08:44:23;9.77;;;3.13;;
11522;SDS011;70090;43.208;27.904;2023-06-04T08:46:51;6.50;;;3.23;;
11522;SDS011;70090;43.208;27.904;2023-06-04T08:49:19;5.77;;;3.57;;
11522;SDS011;70090;43.208;27.904;2023-06-04T08:51:48;7.60;;;4.83;;
11522;SDS011;70090;43.208;27.904;2023-06-04T08:54:16;10.20;;;4.83;;
11522;SDS011;70090;43.208;27.904;2023-06-04T08:56:44;7.33;;;2.97;;
11522;SDS011;70090;43.208;27.904;2023-06-04T08:59:12;6.83;;;3.50;;
11522;SDS011;70090;43.208;27.904;2023-06-04T09:01:39;6.47;;;3.10;;
11522;SDS011;70090;43.208;27.904;2023-06-04T09:04:10;5.13;;;3.20;;
11522;SDS011;70090;43.208;27.904;2023-06-04T09:06:37;4.40;;;2.73;;
11522;SDS011;70090;43.208;27.904;2023-06-04T09:09:07;5.30;;;3.30;;
11522;SDS011;70090;43.208;27.904;2023-06-04T09:11:36;5.93;;;4.00;;
11522;SDS011;70090;43.208;27.904;2023-06-04T09:14:09;8.60;;;3.57;;
11522;SDS011;70090;43.208;27.904;2023-06-04T09:16:44;6.73;;;3.37;;
11522;SDS011;70090;43.208;27.904;2023-06-04T09:19:13;4.87;;;3.17;;
11522;SDS011;70090;43.208;27.904;2023-06-04T09:21:49;9.47;;;4.53;;
11522;SDS011;70090;43.208;27.904;2023-06-04T09:24:17;5.10;;;3.40;;
11522;SDS011;70090;43.208;27.904;2023-06-04T09:26:44;5.87;;;3.07;;
11522;SDS011;70090;43.208;27.904;2023-06-04T09:29:12;8.37;;;3.10;;
11522;SDS011;70090;43.208;27.904;2023-06-04T09:31:40;5.37;;;2.73;;
11522;SDS011;70090;43.208;27.904;2023-06-04T09:34:07;6.97;;;3.33;;
11522;SDS011;70090;43.208;27.904;2023-06-04T09:36:35;3.77;;;2.73;;
11522;SDS011;70090;43.208;27.904;2023-06-04T09:39:03;5.73;;;3.27;;
11522;SDS011;70090;43.208;27.904;2023-06-04T09:41:30;5.53;;;3.60;;
11522;SDS011;70090;43.208;27.904;2023-06-04T09:44:00;4.90;;;2.77;;
11522;SDS011;70090;43.208;27.904;2023-06-04T09:46:32;6.20;;;3.00;;
11522;SDS011;70090;43.208;27.904;2023-06-04T09:48:59;9.07;;;3.57;;
11522;SDS011;70090;43.208;27.904;2023-06-04T09:51:27;10.73;;;3.50;;
11522;SDS011;70090;43.208;27.904;2023-06-04T09:53:56;7.60;;;3.20;;
11522;SDS011;70090;43.208;27.904;2023-06-04T09:56:24;6.83;;;2.80;;
11522;SDS011;70090;43.208;27.904;2023-06-04T09:58:56;10.23;;;3.30;;
11522;SDS011;70090;43.208;27.904;2023-06-04T10:01:26;8.30;;;3.47;;
11522;SDS011;70090;43.208;27.904;2023-06-04T10:03:57;8.73;;;3.10;;
11522;SDS011;70090;43.208;27.904;2023-06-04T10:06:28;8.73;;;3.00;;
11522;SDS011;70090;43.208;27.904;2023-06-04T10:08:59;7.03;;;3.10;;
11522;SDS011;70090;43.208;27.904;2023-06-04T10:11:31;9.50;;;3.00;;
11522;SDS011;70090;43.208;27.904;2023-06-04T10:14:02;7.47;;;3.07;;
11522;SDS011;70090;43.208;27.904;2023-06-04T10:16:30;5.30;;;2.70;;
11522;SDS011;70090;43.208;27.904;2023-06-04T10:19:00;5.60;;;2.60;;
11522;SDS011;70090;43.208;27.904;2023-06-04T10:21:27;9.40;;;2.97;;
11522;SDS011;70090;43.208;27.904;2023-06-04T10:23:57;7.20;;;2.90;;
11522;SDS011;70090;43.208;27.904;2023-06-04T10:26:24;8.67;;;3.80;;
11522;SDS011;70090;43.208;27.904;2023-06-04T10:28:52;6.57;;;2.57;;
11522;SDS011;70090;43.208;27.904;2023-06-04T10:31:19;10.77;;;3.07;;
11522;SDS011;70090;43.208;27.904;2023-06-04T10:33:46;11.03;;;2.77;;
11522;SDS011;70090;43.208;27.904;2023-06-04T10:36:18;4.20;;;2.17;;
11522;SDS011;70090;43.208;27.904;2023-06-04T10:38:47;7.70;;;2.77;;
11522;SDS011;70090;43.208;27.904;2023-06-04T10:41:14;7.97;;;2.93;;
11522;SDS011;70090;43.208;27.904;2023-06-04T10:43:42;7.97;;;3.33;;
11522;SDS011;70090;43.208;27.904;2023-06-04T10:46:13;8.93;;;2.70;;
11522;SDS011;70090;43.208;27.904;2023-06-04T10:48:47;7.23;;;2.70;;
11522;SDS011;70090;43.208;27.904;2023-06-04T10:51:15;6.97;;;2.67;;
11522;SDS011;70090;43.208;27.904;2023-06-04T10:53:44;6.97;;;2.57;;
11522;SDS011;70090;43.208;27.904;2023-06-04T10:56:11;10.03;;;2.57;;
11522;SDS011;70090;43.208;27.904;2023-06-04T10:58:38;5.73;;;2.60;;
11522;SDS011;70090;43.208;27.904;2023-06-04T11:01:04;5.90;;;2.40;;
11522;SDS011;70090;43.208;27.904;2023-06-04T11:03:34;6.43;;;2.30;;
11522;SDS011;70090;43.208;27.904;2023-06-04T11:06:02;10.50;;;2.80;;
11522;SDS011;70090;43.208;27.904;2023-06-04T11:08:40;5.30;;;2.67;;
11522;SDS011;70090;43.208;27.904;2023-06-04T11:11:11;7.10;;;2.30;;
11522;SDS011;70090;43.208;27.904;2023-06-04T11:13:39;4.87;;;2.90;;
11522;SDS011;70090;43.208;27.904;2023-06-04T11:16:14;6.93;;;2.57;;
11522;SDS011;70090;43.208;27.904;2023-06-04T11:18:42;8.50;;;2.93;;
11522;SDS011;70090;43.208;27.904;2023-06-04T11:21:09;8.00;;;2.40;;
11522;SDS011;70090;43.208;27.904;2023-06-04T11:23:39;4.77;;;2.67;;
11522;SDS011;70090;43.208;27.904;2023-06-04T11:26:06;4.73;;;2.53;;
11522;SDS011;70090;43.208;27.904;2023-06-04T11:28:35;8.13;;;2.40;;
11522;SDS011;70090;43.208;27.904;2023-06-04T11:31:02;6.73;;;2.47;;
11522;SDS011;70090;43.208;27.904;2023-06-04T11:33:40;8.17;;;2.40;;
11522;SDS011;70090;43.208;27.904;2023-06-04T11:36:08;4.33;;;2.20;;
11522;SDS011;70090;43.208;27.904;2023-06-04T11:38:35;6.67;;;2.63;;
11522;SDS011;70090;43.208;27.904;2023-06-04T11:41:02;7.20;;;2.83;;
11522;SDS011;70090;43.208;27.904;2023-06-04T11:43:30;11.40;;;2.50;;
11522;SDS011;70090;43.208;27.904;2023-06-04T11:46:04;6.97;;;2.80;;
11522;SDS011;70090;43.208;27.904;2023-06-04T11:48:31;6.33;;;2.43;;
11522;SDS011;70090;43.208;27.904;2023-06-04T11:50:59;8.50;;;2.50;;
11522;SDS011;70090;43.208;27.904;2023-06-04T11:53:33;7.77;;;2.50;;
11522;SDS011;70090;43.208;27.904;2023-06-04T11:56:00;5.90;;;2.57;;
11522;SDS011;70090;43.208;27.904;2023-06-04T11:58:27;7.17;;;2.50;;
11522;SDS011;70090;43.208;27.904;2023-06-04T12:00:55;9.37;;;2.87;;
11522;SDS011;70090;43.208;27.904;2023-06-04T12:03:33;10.80;;;3.20;;
11522;SDS011;70090;43.208;27.904;2023-06-04T12:06:11;5.57;;;2.53;;
11522;SDS011;70090;43.208;27.904;2023-06-04T12:08:47;8.27;;;2.63;;
11522;SDS011;70090;43.208;27.904;2023-06-04T12:11:27;8.37;;;2.60;;
11522;SDS011;70090;43.208;27.904;2023-06-04T12:13:56;7.33;;;2.70;;
11522;SDS011;70090;43.208;27.904;2023-06-04T12:16:25;7.07;;;2.47;;
11522;SDS011;70090;43.208;27.904;2023-06-04T12:18:53;8.57;;;2.60;;
11522;SDS011;70090;43.208;27.904;2023-06-04T12:21:31;8.33;;;2.60;;
11522;SDS011;70090;43.208;27.904;2023-06-04T12:24:05;9.97;;;2.40;;
11522;SDS011;70090;43.208;27.904;2023-06-04T12:26:33;6.50;;;2.70;;
11522;SDS011;70090;43.208;27.904;2023-06-04T12:29:06;5.90;;;2.53;;
11522;SDS011;70090;43.208;27.904;2023-06-04T12:31:36;9.67;;;2.77;;
11522;SDS011;70090;43.208;27.904;2023-06-04T12:34:04;10.40;;;3.50;;
11522;SDS011;70090;43.208;27.904;2023-06-04T12:36:31;6.90;;;2.47;;
11522;SDS011;70090;43.208;27.904;2023-06-04T12:39:00;6.30;;;2.30;;
11522;SDS011;70090;43.208;27.904;2023-06-04T12:41:28;6.37;;;2.37;;
11522;SDS011;70090;43.208;27.904;2023-06-04T12:43:55;4.00;;;2.10;;
11522;SDS011;70090;43.208;27.904;2023-06-04T12:46:23;7.13;;;2.93;;
11522;SDS011;70090;43.208;27.904;2023-06-04T12:48:50;5.83;;;2.33;;
11522;SDS011;70090;43.208;27.904;2023-06-04T12:51:19;9.90;;;2.50;;
11522;SDS011;70090;43.208;27.904;2023-06-04T12:53:46;6.07;;;2.40;;
11522;SDS011;70090;43.208;27.904;2023-06-04T12:56:14;7.20;;;2.57;;
11522;SDS011;70090;43.208;27.904;2023-06-04T12:58:41;8.47;;;2.67;;
11522;SDS011;70090;43.208;27.904;2023-06-04T13:01:08;7.47;;;3.40;;
11522;SDS011;70090;43.208;27.904;2023-06-04T13:03:36;7.37;;;2.60;;
11522;SDS011;70090;43.208;27.904;2023-06-04T13:06:03;7.50;;;2.70;;
11522;SDS011;70090;43.208;27.904;2023-06-04T13:08:32;5.17;;;2.40;;
11522;SDS011;70090;43.208;27.904;2023-06-04T13:10:59;9.03;;;2.40;;
11522;SDS011;70090;43.208;27.904;2023-06-04T13:13:26;6.93;;;2.67;;
11522;SDS011;70090;43.208;27.904;2023-06-04T13:15:53;5.57;;;2.40;;
11522;SDS011;70090;43.208;27.904;2023-06-04T13:18:20;5.53;;;2.40;;
11522;SDS011;70090;43.208;27.904;2023-06-04T13:20:47;7.77;;;2.73;;
11522;SDS011;70090;43.208;27.904;2023-06-04T13:23:15;7.57;;;2.60;;
11522;SDS011;70090;43.208;27.904;2023-06-04T13:25:43;6.47;;;2.50;;
11522;SDS011;70090;43.208;27.904;2023-06-04T13:28:10;7.10;;;2.40;;
11522;SDS011;70090;43.208;27.904;2023-06-04T13:30:38;7.73;;;2.80;;
11522;SDS011;70090;43.208;27.904;2023-06-04T13:33:05;6.27;;;2.70;;
11522;SDS011;70090;43.208;27.904;2023-06-04T13:35:32;6.10;;;3.07;;
11522;SDS011;70090;43.208;27.904;2023-06-04T13:37:59;6.37;;;2.43;;
11522;SDS011;70090;43.208;27.904;2023-06-04T13:40:26;7.50;;;3.17;;
11522;SDS011;70090;43.208;27.904;2023-06-04T13:42:54;6.83;;;2.60;;
11522;SDS011;70090;43.208;27.904;2023-06-04T13:45:21;6.60;;;2.60;;
11522;SDS011;70090;43.208;27.904;2023-06-04T13:47:48;6.97;;;2.60;;
11522;SDS011;70090;43.208;27.904;2023-06-04T13:50:15;7.23;;;2.77;;
11522;SDS011;70090;43.208;27.904;2023-06-04T13:52:42;7.10;;;2.60;;
11522;SDS011;70090;43.208;27.904;2023-06-04T13:55:11;6.50;;;2.47;;
11522;SDS011;70090;43.208;27.904;2023-06-04T13:57:39;8.77;;;2.50;;
11522;SDS011;70090;43.208;27.904;2023-06-04T14:00:08;5.97;;;2.57;;
11522;SDS011;70090;43.208;27.904;2023-06-04T14:02:38;8.60;;;3.00;;
11522;SDS011;70090;43.208;27.904;2023-06-04T14:05:05;7.73;;;2.57;;
11522;SDS011;70090;43.208;27.904;2023-06-04T14:07:32;5.77;;;2.57;;
11522;SDS011;70090;43.208;27.904;2023-06-04T14:10:00;8.43;;;2.47;;
11522;SDS011;70090;43.208;27.904;2023-06-04T14:12:27;6.33;;;2.43;;
11522;SDS011;70090;43.208;27.904;2023-06-04T14:14:53;7.47;;;2.50;;
11522;SDS011;70090;43.208;27.904;2023-06-04T14:17:22;8.97;;;2.40;;
11522;SDS011;70090;43.208;27.904;2023-06-04T14:19:49;7.73;;;2.70;;
11522;SDS011;70090;43.208;27.904;2023-06-04T14:22:15;7.07;;;2.70;;
11522;SDS011;70090;43.208;27.904;2023-06-04T14:24:42;7.63;;;3.00;;
11522;SDS011;70090;43.208;27.904;2023-06-04T14:27:09;6.97;;;2.70;;
11522;SDS011;70090;43.208;27.904;2023-06-04T14:29:36;9.43;;;2.60;;
11522;SDS011;70090;43.208;27.904;2023-06-04T14:32:03;6.90;;;2.67;;
11522;SDS011;70090;43.208;27.904;2023-06-04T14:34:32;6.30;;;2.70;;
11522;SDS011;70090;43.208;27.904;2023-06-04T14:36:59;6.60;;;2.80;;